Latest Coastal Weather Observations for Low Rocky Point

IDT60701

Issued at 3:55 pm EST Saturday 20 September 2014 (issued every 10 minutes, with the page automatically refreshed every 10 minutes)

About coastal observations | Map of coastal stations | Coastal observations for TAS | Marine services | Other Formats
Station Details ID: 097080 Name: LOW ROCKY POINT Lat: -42.98 Lon: 145.50 Height: 34.0 m
Data from the previous 72 hours. | See also: Recent months at Low Rocky Point
Date/Time
EST
Temp

°C
Wind Pressure Rain
since 9am
mm
Weather Cloud Vis
km
Sea
Height
m
Swell
Dir
 
Speed
knots
Gust
knots
hPa Trend Height
m
Period
s
Dir
20/03:30pm 11.7 W 9 11 1026.4 - 0.2 - - - - - - -
20/03:00pm 11.8 W 16 19 1026.3 - 0.2 - - - - - - -
20/02:30pm 11.8 W 17 20 1026.3 - 0.2 - - - - - - -
20/02:00pm 12.0 W 16 20 1026.2 - 0.2 - - - - - - -
20/01:30pm 12.0 W 17 20 1026.1 - 0.2 - - - - - - -
20/01:00pm 11.2 W 17 21 1026.3 - 0.2 - - - - - - -
20/12:30pm 11.6 W 17 20 1026.1 - 0.2 - - - - - - -
20/12:00pm 10.9 W 16 20 1026.4 - 0.2 - - - - - - -
20/11:30am 11.5 W 15 19 1026.3 - 0.2 - - - - - - -
20/11:00am 10.6 WNW 9 11 1026.3 - 0.2 - - - - - - -
20/10:30am 10.8 WSW 17 22 1026.1 - 0.2 - - - - - - -
20/10:00am 11.1 W 17 21 1025.8 - 0.0 - - - - - - -
20/09:30am 10.8 W 14 17 1025.6 - 0.0 - - - - - - -
20/09:00am 10.0 WSW 16 21 1025.7 - 3.0 - - - - - - -
20/08:30am 9.8 WNW 14 17 1025.5 - 3.0 - - - - - - -
20/08:00am 9.8 W 7 8 1025.4 - 3.0 - - - - - - -
20/07:30am 9.8 WSW 10 15 1025.2 - 2.4 - - - - - - -
20/07:00am 9.7 W 14 17 1024.7 - 2.4 - - - - - - -
20/06:30am 9.9 W 11 17 1024.4 - 2.2 - - - - - - -
20/06:00am 10.3 WSW 15 23 1024.1 - 2.0 - - - - - - -
20/05:30am 10.5 WSW 13 17 1023.7 - 2.0 - - - - - - -
20/05:00am 10.5 WSW 13 20 1023.3 - 2.0 - - - - - - -
20/04:30am 10.3 WSW 11 15 1022.8 - 2.0 - - - - - - -
20/04:00am 10.0 WSW 10 13 1022.7 - 2.0 - - - - - - -
20/03:30am 10.2 WSW 13 17 1022.5 - 2.0 - - - - - - -
20/03:00am 9.8 SW 13 19 1022.4 - 2.0 - - - - - - -
20/02:30am 9.8 WSW 15 21 1022.4 - 2.0 - - - - - - -
20/02:00am 10.1 SW 13 17 1022.3 - 2.0 - - - - - - -
20/01:30am 9.7 SW 15 22 1022.4 - 2.0 - - - - - - -
20/01:00am 9.7 SW 14 20 1022.3 - 2.0 - - - - - - -
20/12:30am 10.2 WSW 13 19 1022.2 - 2.0 - - - - - - -
20/12:00am 10.0 SW 16 23 1022.0 - 2.0 Recent precip. - - - - - -
 
Date/Time
EST
Temp

°C
Wind Pressure Rain
since 9am
mm
Weather Cloud Vis
km
Sea
Height
m
Swell
Dir
 
Speed
knots
Gust
knots
hPa Trend Height
m
Period
s
Dir
19/11:30pm 10.4 SW 15 20 1022.0 - 1.8 - - - - - - -
19/11:00pm 9.7 SW 18 24 1022.1 - 1.8 - - - - - - -
19/10:30pm 10.4 SW 15 22 1022.0 - 1.8 - - - - - - -
19/10:00pm 10.5 SW 15 20 1021.9 - 1.4 - - - - - - -
19/09:30pm 10.5 SW 15 21 1021.8 - 1.4 - - - - - - -
19/09:00pm 10.7 WSW 14 19 1021.6 - 1.4 Rain - - - - - -
19/08:30pm 10.4 WSW 15 20 1021.5 - 1.2 - - - - - - -
19/08:00pm 10.8 WSW 17 26 1021.4 - 1.2 - - - - - - -
19/07:30pm 11.1 WSW 15 21 1021.1 - 0.6 - - - - - - -
19/07:00pm 10.9 WSW 15 21 1020.9 - 0.6 - - - - - - -
19/06:30pm 10.8 WSW 14 21 1020.5 - 0.6 - - - - - - -
19/06:00pm 10.2 SW 16 24 1020.3 - 0.6 - - - - - - -
19/05:30pm 10.4 WSW 14 20 1020.1 - 0.6 - - - - - - -
19/05:00pm 10.5 WSW 16 22 1019.8 - 0.6 - - - - - - -
19/04:30pm 11.1 W 17 23 1019.7 - 0.2 - - - - - - -
19/04:00pm 11.3 WSW 18 22 1019.6 - 0.0 - - - - - - -
19/03:30pm 12.3 W 15 18 1019.5 - 0.0 - - - - - - -
19/03:00pm 12.4 WSW 12 17 1019.5 - 0.0 - - - - - - -
19/02:30pm 12.8 WSW 14 19 1019.4 - 0.0 - - - - - - -
19/02:00pm 13.1 WSW 9 13 1019.3 - 0.0 - - - - - - -
19/01:30pm 13.0 WSW 12 17 1019.4 - 0.0 - - - - - - -
19/01:00pm 13.3 WSW 13 17 1019.4 - 0.0 - - - - - - -
19/12:30pm 12.3 WSW 13 20 1019.4 - 0.0 - - - - - - -
19/12:00pm 13.1 WSW 11 16 1019.5 - 0.0 - - - - - - -
19/11:30am 13.6 WSW 12 16 1019.5 - 0.0 - - - - - - -
19/11:00am 13.6 WSW 14 21 1019.6 - 0.0 - - - - - - -
19/10:30am 13.2 WSW 14 20 1019.5 - 0.0 - - - - - - -
19/10:00am 12.3 WSW 15 21 1019.4 - 0.0 - - - - - - -
19/09:30am 11.3 WSW 15 26 1019.4 - 0.0 - - - - - - -
19/09:24am 12.1 WSW 15 26 1019.4 - 0.0 - - - - - - -
19/09:00am 11.9 WSW 13 18 1019.3 - 1.8 - - - - - - -
19/08:30am 11.8 WSW 13 17 1019.1 - 1.8 - - - - - - -
19/08:00am 11.2 SW 17 23 1019.0 - 1.8 - - - - - - -
19/07:40am 11.3 WSW 17 27 1018.8 - 1.8 - - - - - - -
19/07:30am 11.0 SW 18 26 1018.8 - 1.8 - - - - - - -
19/07:00am 10.9 WSW 15 21 1018.6 - 1.8 - - - - - - -
19/06:30am 10.8 SW 15 23 1018.3 - 1.8 - - - - - - -
19/06:13am 10.7 SW 19 31 1018.2 - 1.8 - - - - - - -
19/06:00am 10.8 SW 19 25 1018.0 - 1.8 - - - - - - -
19/05:30am 10.8 SW 18 25 1017.7 - 1.8 - - - - - - -
19/05:02am 11.0 WSW 17 27 1017.7 - 1.8 - - - - - - -
19/05:00am 11.0 WSW 16 24 1017.6 - 1.8 - - - - - - -
19/04:30am 11.0 WSW 18 25 1017.5 - 1.8 - - - - - - -
19/04:20am 10.7 WSW 19 29 1017.4 - 1.8 - - - - - - -
19/04:00am 11.0 WSW 20 28 1017.2 - 1.8 - - - - - - -
19/03:30am 10.6 WSW 22 29 1017.1 - 1.6 - - - - - - -
19/03:01am 10.4 WSW 21 33 1017.4 - 1.6 - - - - - - -
19/03:00am 10.6 WSW 21 29 1017.3 - 1.4 - - - - - - -
19/02:44am 11.3 WSW 21 34 1017.3 - 1.4 - - - - - - -
19/02:30am 11.1 WSW 20 26 1017.4 - 1.4 - - - - - - -
19/02:00am 11.0 WSW 23 31 1017.5 - 1.4 - - - - - - -
19/01:50am 10.9 WSW 19 29 1017.5 - 1.4 - - - - - - -
19/01:30am 10.8 W 23 29 1017.6 - 1.4 - - - - - - -
19/01:02am 11.0 W 25 35 1017.7 - 1.0 - - - - - - -
19/01:00am 11.3 W 25 32 1017.5 - 1.0 - - - - - - -
19/12:30am 11.2 W 23 28 1017.5 - 1.0 - - - - - - -
19/12:00am 10.8 W 24 30 1017.7 - 1.0 Recent precip. - - - - - -
 
Date/Time
EST
Temp

°C
Wind Pressure Rain
since 9am
mm
Weather Cloud Vis
km
Sea
Height
m
Swell
Dir
 
Speed
knots
Gust
knots
hPa Trend Height
m
Period
s
Dir
18/11:30pm 11.1 W 22 27 1017.8 - 0.8 - - - - - - -
18/11:00pm 10.9 W 24 30 1017.9 - 0.8 - - - - - - -
18/10:30pm 11.0 W 23 28 1017.9 - 0.6 - - - - - - -
18/10:00pm 10.7 W 21 25 1018.1 - 0.6 - - - - - - -
18/09:30pm 11.0 W 19 23 1018.2 - 0.6 - - - - - - -
18/09:00pm 11.2 W 19 23 1018.5 - 0.6 - - - - - - -
18/08:30pm 11.2 WSW 16 22 1018.6 - 0.6 - - - - - - -
18/08:00pm 11.0 W 18 20 1018.5 - 0.6 - - - - - - -
18/07:30pm 10.8 SW 18 23 1018.6 - 0.6 - - - - - - -
18/07:00pm 10.8 WSW 16 22 1018.3 - 0.4 - - - - - - -
18/06:30pm 10.9 WSW 16 21 1018.1 - 0.4 - - - - - - -
18/06:00pm 10.7 W 14 18 1018.0 - 0.4 - - - - - - -
18/05:30pm 10.6 WSW 14 19 1017.9 - 0.4 - - - - - - -
18/05:00pm 10.4 WSW 14 20 1017.6 - 0.4 - - - - - - -
18/04:30pm 10.4 WSW 19 26 1017.6 - 0.4 - - - - - - -
18/04:26pm 10.7 WSW 16 26 1017.6 - 0.4 - - - - - - -
18/04:00pm 11.8 WSW 15 22 1017.5 - 0.4 - - - - - - -
18/03:30pm 12.7 WSW 16 21 1017.5 - 0.4 - - - - - - -
18/03:00pm 13.3 WSW 17 25 1017.4 - 0.4 - - - - - - -
18/02:30pm 12.1 W 21 28 1017.4 - 0.4 - - - - - - -
18/02:00pm 12.0 W 24 30 1017.2 - 0.4 - - - - - - -
18/01:30pm 11.4 W 25 32 1017.1 - 0.4 - - - - - - -
18/01:00pm 11.4 W 25 30 1017.2 - 0.4 - - - - - - -
18/12:30pm 11.8 W 21 26 1017.3 - 0.4 - - - - - - -
18/12:00pm 11.9 W 17 24 1017.6 - 0.4 - - - - - - -
18/11:30am 10.8 WSW 17 24 1018.1 - 0.4 - - - - - - -
18/11:00am 9.6 WSW 16 23 1018.2 - 0.4 - - - - - - -
18/10:30am 9.1 WSW 13 20 1018.3 - 0.0 - - - - - - -
18/10:15am 10.8 WSW 15 29 1018.2 - 0.0 - - - - - - -
18/10:00am 11.5 WSW 10 14 1018.2 - 0.0 - - - - - - -
18/09:30am 8.7 SSW 14 24 1018.4 - 0.0 - - - - - - -
18/09:00am 10.4 SW 14 19 1018.0 - 2.0 - - - - - - -
18/08:30am 9.5 SW 13 19 1017.8 - 2.0 - - - - - - -
18/08:00am 8.3 SSW 15 26 1017.7 - 2.0 - - - - - - -
18/07:55am 9.9 SW 15 26 1017.6 - 1.8 - - - - - - -
18/07:30am 8.9 SSW 14 21 1017.3 - 1.8 - - - - - - -
18/07:00am 9.1 SSW 13 20 1016.9 - 1.8 - - - - - - -
18/06:30am 9.0 SSW 15 22 1016.5 - 1.8 - - - - - - -
18/06:00am 8.6 SSW 17 24 1016.2 - 1.8 - - - - - - -
18/05:30am 9.0 SW 18 24 1015.7 - 1.8 - - - - - - -
18/05:00am 9.1 SW 17 24 1015.3 - 1.8 - - - - - - -
18/04:30am 9.3 SW 18 25 1015.0 - 1.8 - - - - - - -
18/04:05am 8.6 SSW 15 25 1014.8 - 1.8 - - - - - - -
18/04:00am 8.5 SSW 14 20 1014.8 - 1.8 - - - - - - -
18/03:30am 8.8 SSW 16 23 1014.6 - 1.8 - - - - - - -
18/03:00am 8.2 SW 13 18 1014.3 - 1.8 Recent precip. - - - - - -
18/02:49am 8.6 SW 15 27 1014.3 - 1.8 - - - - - - -
18/02:30am 8.9 SW 16 23 1014.3 - 1.6 - - - - - - -
18/02:00am 9.4 SW 12 16 1014.1 - 1.6 - - - - - - -
18/01:30am 9.2 SW 15 21 1014.2 - 1.6 - - - - - - -
18/01:00am 9.4 SW 17 23 1014.1 - 1.6 - - - - - - -
18/12:30am 9.6 SW 15 21 1013.8 - 1.6 - - - - - - -
18/12:00am 9.2 SSW 17 25 1013.6 - 1.6 - - - - - - -
 
Date/Time
EST
Temp

°C
Wind Pressure Rain
since 9am
mm
Weather Cloud Vis
km
Sea
Height
m
Swell
Dir
 
Speed
knots
Gust
knots
hPa Trend Height
m
Period
s
Dir
17/11:30pm 9.0 SW 19 26 1013.2 - 1.6 - - - - - - -
17/11:00pm 8.4 SW 18 25 1013.0 - 1.6 - - - - - - -
17/10:30pm 8.1 SSW 22 32 1012.7 - 1.6 - - - - - - -
17/10:22pm 9.2 SSW 21 32 1012.5 - 1.6 - - - - - - -
17/10:00pm 9.4 SW 20 29 1012.2 - 1.6 - - - - - - -
17/09:30pm 9.2 SW 19 27 1011.6 - 1.6 - - - - - - -
17/09:00pm 8.5 SSW 19 26 1011.2 - 1.6 - - - - - - -
17/08:47pm 9.1 SW 19 29 1011.1 - 1.6 - - - - - - -
17/08:30pm 8.7 SW 20 27 1011.0 - 1.6 - - - - - - -
17/08:21pm 8.7 SW 15 27 1010.8 - 1.6 - - - - - - -
17/08:00pm 7.7 SSW 13 19 1010.6 - 1.6 - - - - - - -
17/07:46pm 8.6 SW 18 33 1010.4 - 1.6 - - - - - - -
17/07:30pm 8.6 WSW 17 25 1010.0 - 1.6 - - - - - - -
17/07:00pm 8.2 WSW 15 21 1009.7 - 1.6 - - - - - - -
17/06:30pm 8.1 WSW 17 21 1009.3 - 1.6 - - - - - - -
17/06:00pm 8.2 WSW 16 22 1008.9 - 1.6 Recent precip. - - - - - -
17/05:30pm 7.6 W 15 19 1008.6 - 1.6 - - - - - - -
17/05:02pm 6.4 WSW 17 27 1008.5 - 1.6 - - - - - - -
17/05:00pm 6.7 WSW 19 28 1008.6 - 1.2 - - - - - - -
17/04:50pm 7.2 SW 18 29 1008.3 - 1.2 - - - - - - -
17/04:39pm 8.6 SW 27 32 1007.9 - 1.0 - - - - - - -
17/04:30pm 8.8 SW 11 16 1007.8 - 1.0 - - - - - - -
17/04:00pm 8.5 WSW 15 22 1007.7 - 1.0 - - - - - - -

Other Formats:

Comma delimited format used in spreadsheet applications
http://www.bom.gov.au/fwo/IDT60701/IDT60701.95961.axf

JavaScript Object Notation format (JSON) in row-major order
http://www.bom.gov.au/fwo/IDT60701/IDT60701.95961.json